ACA112 VGHS-RCTP
Flight info
| Callsign | ACA112 |
|---|---|
| Flight time | 3h 51m |
| Altitude | 25000 |
| Route | NIKLI2 NIKLI W1 SYT/N0500F350 DCT KKU V56 LIGSA DCT MKN/K0922S1070 DCT SGM/K0915S1130 A599 POU B330 TAMOT/N0493F370 B330 BIGEX A1 ANPOG R200 EXTRA M750 TONGA DCT BRAVO DCT JAMMY |
| Aircraft | B77W/H-SDE1E2E3FGHIJ2J3J4J5M1RWXY/LB1D1 |
Departure
| Time | 2026-05-08 19:48 |
|---|---|
| Airport | Hazrat Shahjalal International Airport (VGHS) |
Arrival
| Time | 2026-05-08 23:39 |
|---|---|
| Airport | Taiwan Taoyuan International Airport (RCTP) |
| Time | Latitude | Longitude | Altitude | Speed | Heading |
|---|---|---|---|---|---|
| 2026-05-08 19:12 | 23.84731 | 90.40421 | 41 ft | 0 kts | 53° |
| 2026-05-08 19:38 | 23.84721 | 90.40407 | 41 ft | 4 kts | 57° |
| 2026-05-08 19:39 | 23.84714 | 90.40390 | 40 ft | 4 kts | 73° |
| 2026-05-08 19:39 | 23.84706 | 90.40362 | 37 ft | 4 kts | 71° |
| 2026-05-08 19:39 | 23.84698 | 90.40334 | 38 ft | 4 kts | 75° |
| 2026-05-08 19:39 | 23.84693 | 90.40308 | 38 ft | 1 kts | 84° |
| 2026-05-08 19:40 | 23.84692 | 90.40303 | 37 ft | 0 kts | 84° |
| 2026-05-08 19:42 | 23.84687 | 90.40337 | 37 ft | 9 kts | 111° |
| 2026-05-08 19:42 | 23.84620 | 90.40406 | 41 ft | 18 kts | 143° |
| 2026-05-08 19:43 | 23.84507 | 90.40495 | 41 ft | 20 kts | 144° |
| 2026-05-08 19:43 | 23.84395 | 90.40584 | 41 ft | 14 kts | 144° |
| 2026-05-08 19:43 | 23.84310 | 90.40567 | 41 ft | 14 kts | 226° |
| 2026-05-08 19:43 | 23.84224 | 90.40536 | 41 ft | 15 kts | 156° |
| 2026-05-08 19:44 | 23.84120 | 90.40614 | 41 ft | 21 kts | 144° |
| 2026-05-08 19:44 | 23.84001 | 90.40708 | 40 ft | 21 kts | 144° |
| 2026-05-08 19:44 | 23.83883 | 90.40802 | 41 ft | 21 kts | 144° |
| 2026-05-08 19:44 | 23.83765 | 90.40895 | 41 ft | 21 kts | 144° |
| 2026-05-08 19:45 | 23.83647 | 90.40990 | 41 ft | 21 kts | 144° |
| 2026-05-08 19:45 | 23.83535 | 90.41078 | 41 ft | 13 kts | 144° |
| 2026-05-08 19:45 | 23.83452 | 90.41096 | 41 ft | 13 kts | 213° |
| 2026-05-08 19:45 | 23.83390 | 90.41021 | 41 ft | 13 kts | 234° |
| 2026-05-08 19:46 | 23.83335 | 90.40938 | 41 ft | 13 kts | 234° |
| 2026-05-08 19:46 | 23.83281 | 90.40857 | 41 ft | 13 kts | 234° |
| 2026-05-08 19:46 | 23.83207 | 90.40682 | 42 ft | 13 kts | 298° |
| 2026-05-08 19:47 | 23.83247 | 90.40642 | 40 ft | 8 kts | 323° |
| 2026-05-08 19:47 | 23.83293 | 90.40606 | 41 ft | 12 kts | 324° |
| 2026-05-08 19:47 | 23.83603 | 90.40362 | 43 ft | 105 kts | 324° |
| 2026-05-08 19:47 | 23.84434 | 90.39692 | 91 ft | 188 kts | 323° |
| 2026-05-08 19:48 | 23.85552 | 90.38800 | 762 ft | 207 kts | 324° |
| 2026-05-08 19:48 | 23.86781 | 90.37857 | 1433 ft | 203 kts | 333° |
| 2026-05-08 19:48 | 23.88128 | 90.37681 | 2443 ft | 199 kts | 17° |
| 2026-05-08 19:48 | 23.89218 | 90.38590 | 3185 ft | 209 kts | 57° |
| 2026-05-08 19:49 | 23.89778 | 90.40109 | 3760 ft | 223 kts | 74° |
| 2026-05-08 19:49 | 23.90165 | 90.41782 | 4210 ft | 229 kts | 76° |
| 2026-05-08 19:49 | 23.90526 | 90.43474 | 4695 ft | 227 kts | 76° |
| 2026-05-08 19:49 | 23.90881 | 90.45141 | 5276 ft | 225 kts | 76° |
| 2026-05-08 19:50 | 23.91250 | 90.46840 | 5949 ft | 234 kts | 76° |
| 2026-05-08 19:50 | 23.91640 | 90.48600 | 6544 ft | 250 kts | 75° |
| 2026-05-08 19:50 | 23.92062 | 90.50483 | 7148 ft | 259 kts | 75° |
| 2026-05-08 19:50 | 23.92503 | 90.52447 | 7821 ft | 272 kts | 75° |
| 2026-05-08 19:51 | 23.92973 | 90.54494 | 8479 ft | 282 kts | 72° |
| 2026-05-08 19:51 | 23.93882 | 90.56402 | 9106 ft | 284 kts | 49° |
| 2026-05-08 19:51 | 23.95177 | 90.58064 | 9796 ft | 296 kts | 47° |
| 2026-05-08 19:51 | 23.96555 | 90.59813 | 10424 ft | 312 kts | 47° |
| 2026-05-08 19:52 | 23.98021 | 90.61685 | 10684 ft | 343 kts | 48° |
| 2026-05-08 19:52 | 23.99639 | 90.63771 | 10903 ft | 373 kts | 49° |
| 2026-05-08 19:52 | 24.01374 | 90.66028 | 11386 ft | 392 kts | 49° |
| 2026-05-08 19:52 | 24.03128 | 90.68324 | 12142 ft | 402 kts | 49° |
| 2026-05-08 19:53 | 24.04943 | 90.70705 | 12992 ft | 409 kts | 49° |
| 2026-05-08 19:53 | 24.06785 | 90.73122 | 13872 ft | 415 kts | 49° |
| 2026-05-08 19:53 | 24.08650 | 90.75568 | 14657 ft | 421 kts | 49° |
| 2026-05-08 19:53 | 24.10585 | 90.77952 | 15448 ft | 426 kts | 46° |
| 2026-05-08 19:54 | 24.12646 | 90.80327 | 16229 ft | 432 kts | 45° |
| 2026-05-08 19:54 | 24.14751 | 90.82718 | 17016 ft | 437 kts | 45° |
| 2026-05-08 19:54 | 24.16157 | 90.84322 | 17555 ft | 441 kts | 45° |
| 2026-05-08 19:54 | 24.18288 | 90.86774 | 18302 ft | 447 kts | 45° |
| 2026-05-08 19:55 | 24.21126 | 90.90107 | 19197 ft | 454 kts | 47° |
| 2026-05-08 19:55 | 24.22520 | 90.91836 | 19616 ft | 457 kts | 48° |
| 2026-05-08 19:55 | 24.24610 | 90.94500 | 20263 ft | 463 kts | 49° |
| 2026-05-08 19:55 | 24.26719 | 90.97214 | 20902 ft | 468 kts | 49° |
| 2026-05-08 19:56 | 24.28843 | 90.99947 | 21551 ft | 474 kts | 49° |
| 2026-05-08 19:56 | 24.31003 | 91.02711 | 22163 ft | 479 kts | 49° |
| 2026-05-08 19:56 | 24.33174 | 91.05475 | 22747 ft | 484 kts | 49° |
| 2026-05-08 19:56 | 24.35389 | 91.08289 | 23355 ft | 489 kts | 49° |
| 2026-05-08 19:57 | 24.37632 | 91.11135 | 23817 ft | 495 kts | 48° |
| 2026-05-08 19:57 | 24.39902 | 91.14015 | 24241 ft | 501 kts | 48° |
| 2026-05-08 19:57 | 24.42199 | 91.16932 | 24656 ft | 507 kts | 48° |
| 2026-05-08 19:57 | 24.44492 | 91.19846 | 25053 ft | 512 kts | 48° |
| 2026-05-08 19:58 | 24.46834 | 91.22825 | 25458 ft | 518 kts | 48° |
| 2026-05-08 19:58 | 24.49201 | 91.25839 | 25865 ft | 523 kts | 48° |
| 2026-05-08 19:58 | 24.51601 | 91.28898 | 26252 ft | 528 kts | 48° |
| 2026-05-08 19:58 | 24.54009 | 91.31967 | 26636 ft | 533 kts | 48° |
| 2026-05-08 19:59 | 24.56441 | 91.35068 | 27016 ft | 538 kts | 48° |
| 2026-05-08 19:59 | 24.58861 | 91.38156 | 27375 ft | 542 kts | 48° |
| 2026-05-08 19:59 | 24.61343 | 91.41326 | 27731 ft | 547 kts | 48° |
| 2026-05-08 19:59 | 24.63840 | 91.44516 | 28080 ft | 552 kts | 48° |
| 2026-05-08 20:00 | 24.66355 | 91.47733 | 28411 ft | 556 kts | 48° |
| 2026-05-08 20:00 | 24.68859 | 91.50938 | 28714 ft | 560 kts | 48° |
| 2026-05-08 20:00 | 24.71412 | 91.54210 | 29019 ft | 564 kts | 48° |
| 2026-05-08 20:00 | 24.73990 | 91.57513 | 29301 ft | 568 kts | 47° |
| 2026-05-08 20:01 | 24.76545 | 91.60790 | 29569 ft | 571 kts | 47° |
| 2026-05-08 20:01 | 24.79147 | 91.64127 | 29841 ft | 575 kts | 47° |
| 2026-05-08 20:01 | 24.81763 | 91.67484 | 30099 ft | 577 kts | 47° |
| 2026-05-08 20:01 | 24.84376 | 91.70843 | 30435 ft | 576 kts | 47° |
| 2026-05-08 20:02 | 24.86986 | 91.74201 | 30826 ft | 575 kts | 47° |
| 2026-05-08 20:02 | 24.89589 | 91.77551 | 31228 ft | 574 kts | 47° |
| 2026-05-08 20:02 | 24.92117 | 91.80867 | 31572 ft | 572 kts | 51° |
| 2026-05-08 20:02 | 24.94205 | 91.84631 | 31815 ft | 576 kts | 66° |
| 2026-05-08 20:03 | 24.95542 | 91.88802 | 32179 ft | 573 kts | 78° |
| 2026-05-08 20:03 | 24.96182 | 91.93051 | 32595 ft | 567 kts | 90° |
| 2026-05-08 20:03 | 24.96107 | 91.97350 | 32936 ft | 559 kts | 97° |
| 2026-05-08 20:03 | 24.95854 | 92.01654 | 33209 ft | 561 kts | 98° |
| 2026-05-08 20:04 | 24.95596 | 92.05958 | 33547 ft | 561 kts | 98° |
| 2026-05-08 20:04 | 24.95359 | 92.10256 | 33928 ft | 560 kts | 97° |
| 2026-05-08 20:04 | 24.95154 | 92.14486 | 34277 ft | 559 kts | 97° |
| 2026-05-08 20:04 | 24.94967 | 92.18779 | 34642 ft | 558 kts | 96° |
| 2026-05-08 20:05 | 24.94793 | 92.23058 | 34916 ft | 559 kts | 96° |
| 2026-05-08 20:05 | 24.94621 | 92.27359 | 34881 ft | 560 kts | 96° |
| 2026-05-08 20:05 | 24.94276 | 92.35872 | 34892 ft | 556 kts | 96° |
| 2026-05-08 20:06 | 24.93916 | 92.44415 | 34893 ft | 556 kts | 96° |
| 2026-05-08 20:06 | 24.93550 | 92.52870 | 34892 ft | 556 kts | 96° |
| 2026-05-08 20:07 | 24.93177 | 92.61387 | 34898 ft | 556 kts | 96° |
| 2026-05-08 20:07 | 24.92802 | 92.69859 | 34899 ft | 556 kts | 96° |
| 2026-05-08 20:08 | 24.92420 | 92.78397 | 34906 ft | 557 kts | 97° |
| 2026-05-08 20:08 | 24.92036 | 92.86884 | 34903 ft | 557 kts | 97° |
| 2026-05-08 20:09 | 24.92092 | 92.95446 | 34896 ft | 562 kts | 82° |
| 2026-05-08 20:09 | 24.94485 | 93.03658 | 34917 ft | 565 kts | 62° |
| 2026-05-08 20:10 | 24.98722 | 93.10889 | 34925 ft | 564 kts | 53° |
| 2026-05-08 20:10 | 25.03211 | 93.18017 | 34944 ft | 566 kts | 54° |
| 2026-05-08 20:11 | 25.07614 | 93.25207 | 34933 ft | 568 kts | 55° |
| 2026-05-08 20:11 | 25.11958 | 93.32455 | 34932 ft | 567 kts | 55° |
| 2026-05-08 20:12 | 25.16317 | 93.39753 | 34952 ft | 567 kts | 55° |
| 2026-05-08 20:12 | 25.20636 | 93.46976 | 34965 ft | 567 kts | 55° |
| 2026-05-08 20:13 | 25.24987 | 93.54257 | 34959 ft | 566 kts | 55° |
| 2026-05-08 20:13 | 25.29313 | 93.61502 | 34987 ft | 562 kts | 55° |
| 2026-05-08 20:14 | 25.33607 | 93.68708 | 34987 ft | 564 kts | 55° |
| 2026-05-08 20:14 | 25.37928 | 93.75974 | 34945 ft | 564 kts | 56° |
| 2026-05-08 20:15 | 25.41203 | 93.83780 | 34945 ft | 565 kts | 76° |
| 2026-05-08 20:15 | 25.42338 | 93.92383 | 35024 ft | 564 kts | 93° |
| 2026-05-08 20:16 | 25.42246 | 94.01017 | 35003 ft | 561 kts | 94° |
| 2026-05-08 20:16 | 25.42151 | 94.09647 | 35005 ft | 558 kts | 94° |
| 2026-05-08 20:17 | 25.42122 | 94.18231 | 35019 ft | 563 kts | 93° |
| 2026-05-08 20:17 | 25.42127 | 94.26951 | 35030 ft | 566 kts | 93° |
| 2026-05-08 20:18 | 25.42131 | 94.35624 | 35020 ft | 567 kts | 94° |
| 2026-05-08 20:18 | 25.42125 | 94.44371 | 35025 ft | 566 kts | 93° |
| 2026-05-08 20:19 | 25.42111 | 94.53029 | 35013 ft | 564 kts | 93° |
| 2026-05-08 20:19 | 25.42089 | 94.61709 | 35007 ft | 562 kts | 94° |
| 2026-05-08 20:20 | 25.42062 | 94.70314 | 35002 ft | 562 kts | 94° |
| 2026-05-08 20:20 | 25.42029 | 94.78998 | 35002 ft | 564 kts | 94° |
| 2026-05-08 20:21 | 25.41993 | 94.87639 | 34983 ft | 564 kts | 93° |
| 2026-05-08 20:21 | 25.41953 | 94.96343 | 34964 ft | 564 kts | 94° |
| 2026-05-08 20:22 | 25.41907 | 95.05020 | 34952 ft | 564 kts | 94° |
| 2026-05-08 20:22 | 25.41864 | 95.12236 | 34931 ft | 564 kts | 94° |
| 2026-05-08 20:23 | 25.41797 | 95.22319 | 34911 ft | 562 kts | 94° |
| 2026-05-08 20:23 | 25.41736 | 95.30990 | 34906 ft | 561 kts | 94° |
| 2026-05-08 20:24 | 25.41670 | 95.39593 | 34889 ft | 560 kts | 94° |
| 2026-05-08 20:24 | 25.41599 | 95.48187 | 34883 ft | 560 kts | 94° |
| 2026-05-08 20:25 | 25.41523 | 95.56819 | 34876 ft | 560 kts | 94° |
| 2026-05-08 20:25 | 25.41441 | 95.65394 | 34885 ft | 560 kts | 94° |
| 2026-05-08 20:26 | 25.41355 | 95.74025 | 34882 ft | 560 kts | 94° |
| 2026-05-08 20:26 | 25.41263 | 95.82655 | 34883 ft | 560 kts | 94° |
| 2026-05-08 20:27 | 25.41167 | 95.91224 | 34885 ft | 560 kts | 94° |
| 2026-05-08 20:27 | 25.41066 | 95.99859 | 34885 ft | 560 kts | 94° |
| 2026-05-08 20:28 | 25.40959 | 96.08423 | 34896 ft | 560 kts | 94° |
| 2026-05-08 20:28 | 25.40847 | 96.17064 | 34886 ft | 561 kts | 94° |
| 2026-05-08 20:29 | 25.40731 | 96.25696 | 34883 ft | 561 kts | 94° |
| 2026-05-08 20:29 | 25.40610 | 96.34269 | 34891 ft | 560 kts | 94° |
| 2026-05-08 20:30 | 25.40484 | 96.42874 | 34903 ft | 559 kts | 94° |
| 2026-05-08 20:30 | 25.40353 | 96.51465 | 34898 ft | 558 kts | 94° |
| 2026-05-08 20:31 | 25.40216 | 96.60068 | 34890 ft | 558 kts | 94° |
| 2026-05-08 20:31 | 25.40076 | 96.68620 | 34885 ft | 558 kts | 94° |
| 2026-05-08 20:32 | 25.39930 | 96.77226 | 34888 ft | 558 kts | 94° |
| 2026-05-08 20:32 | 25.39779 | 96.85750 | 34894 ft | 558 kts | 94° |
| 2026-05-08 20:33 | 25.39622 | 96.94352 | 34900 ft | 558 kts | 94° |
| 2026-05-08 20:33 | 25.39461 | 97.02967 | 34891 ft | 559 kts | 94° |
| 2026-05-08 20:34 | 25.39295 | 97.11533 | 34901 ft | 560 kts | 94° |
| 2026-05-08 20:35 | 25.39037 | 97.24429 | 34889 ft | 560 kts | 94° |
| 2026-05-08 20:35 | 25.38858 | 97.33073 | 34893 ft | 560 kts | 94° |
| 2026-05-08 20:36 | 25.38617 | 97.41691 | 34896 ft | 560 kts | 96° |
| 2026-05-08 20:36 | 25.38235 | 97.50249 | 34899 ft | 559 kts | 96° |
| 2026-05-08 20:37 | 25.37829 | 97.58813 | 34913 ft | 559 kts | 96° |
| 2026-05-08 20:37 | 25.37439 | 97.67418 | 34928 ft | 560 kts | 96° |
| 2026-05-08 20:38 | 25.37061 | 97.76004 | 34935 ft | 560 kts | 96° |
| 2026-05-08 20:38 | 25.36679 | 97.84620 | 34967 ft | 560 kts | 96° |
| 2026-05-08 20:39 | 25.36288 | 97.93245 | 34985 ft | 561 kts | 96° |
| 2026-05-08 20:39 | 25.35894 | 98.01822 | 34995 ft | 562 kts | 96° |
| 2026-05-08 20:40 | 25.35493 | 98.10470 | 35009 ft | 561 kts | 96° |
| 2026-05-08 20:40 | 25.35086 | 98.19094 | 35046 ft | 562 kts | 96° |
| 2026-05-08 20:41 | 25.34674 | 98.27715 | 35037 ft | 563 kts | 96° |
| 2026-05-08 20:41 | 25.34259 | 98.36305 | 35044 ft | 562 kts | 96° |
| 2026-05-08 20:42 | 25.33838 | 98.44949 | 35037 ft | 560 kts | 96° |
| 2026-05-08 20:42 | 25.33414 | 98.53539 | 35052 ft | 558 kts | 96° |
| 2026-05-08 20:43 | 25.32986 | 98.62069 | 35040 ft | 559 kts | 96° |
| 2026-05-08 20:43 | 25.32550 | 98.70679 | 35033 ft | 559 kts | 96° |
| 2026-05-08 20:44 | 25.32185 | 98.77830 | 35052 ft | 558 kts | 96° |
| 2026-05-08 20:44 | 25.31739 | 98.86410 | 35035 ft | 560 kts | 96° |
| 2026-05-08 20:45 | 25.31292 | 98.94980 | 35027 ft | 561 kts | 96° |
| 2026-05-08 20:45 | 25.30840 | 99.03609 | 35020 ft | 560 kts | 96° |
| 2026-05-08 20:46 | 25.30380 | 99.12186 | 35039 ft | 560 kts | 96° |
| 2026-05-08 20:46 | 25.29913 | 99.20787 | 35030 ft | 559 kts | 96° |
| 2026-05-08 20:47 | 25.29447 | 99.29340 | 35021 ft | 559 kts | 96° |
| 2026-05-08 20:47 | 25.28974 | 99.37910 | 35041 ft | 557 kts | 96° |
| 2026-05-08 20:48 | 25.28499 | 99.46425 | 35024 ft | 558 kts | 96° |
| 2026-05-08 20:48 | 25.28016 | 99.55001 | 35006 ft | 558 kts | 96° |
| 2026-05-08 20:49 | 25.27532 | 99.63508 | 35023 ft | 557 kts | 96° |
| 2026-05-08 20:49 | 25.27036 | 99.72090 | 35011 ft | 558 kts | 97° |
| 2026-05-08 20:50 | 25.26542 | 99.80611 | 35008 ft | 558 kts | 96° |
| 2026-05-08 20:50 | 25.26042 | 99.89186 | 35011 ft | 558 kts | 96° |
| 2026-05-08 20:51 | 25.25533 | 99.97764 | 35016 ft | 559 kts | 97° |
| 2026-05-08 20:51 | 25.25021 | 100.06305 | 35020 ft | 562 kts | 97° |
| 2026-05-08 20:52 | 25.24500 | 100.14906 | 35023 ft | 560 kts | 97° |
| 2026-05-08 20:52 | 25.23982 | 100.23447 | 35027 ft | 558 kts | 97° |
| 2026-05-08 20:53 | 25.23454 | 100.32014 | 35034 ft | 556 kts | 97° |
| 2026-05-08 20:53 | 25.22925 | 100.40500 | 35047 ft | 556 kts | 97° |
| 2026-05-08 20:54 | 25.22391 | 100.49031 | 35055 ft | 556 kts | 97° |
| 2026-05-08 20:54 | 25.21851 | 100.57580 | 35048 ft | 556 kts | 97° |
| 2026-05-08 20:55 | 25.21304 | 100.66074 | 35066 ft | 557 kts | 97° |
| 2026-05-08 20:55 | 25.20751 | 100.74643 | 35074 ft | 560 kts | 97° |
| 2026-05-08 20:56 | 25.20196 | 100.83215 | 35070 ft | 561 kts | 97° |
| 2026-05-08 20:56 | 25.19632 | 100.91824 | 35085 ft | 560 kts | 97° |
| 2026-05-08 20:57 | 25.19066 | 101.00359 | 35097 ft | 558 kts | 97° |
| 2026-05-08 20:57 | 25.18498 | 101.08877 | 35108 ft | 557 kts | 97° |
| 2026-05-08 20:58 | 25.17920 | 101.17428 | 35124 ft | 558 kts | 97° |
| 2026-05-08 20:58 | 25.17342 | 101.25930 | 35123 ft | 558 kts | 97° |
| 2026-05-08 20:59 | 25.16756 | 101.34484 | 35129 ft | 559 kts | 97° |
| 2026-05-08 20:59 | 25.16166 | 101.43019 | 35125 ft | 559 kts | 97° |
| 2026-05-08 21:00 | 25.15569 | 101.51604 | 35146 ft | 558 kts | 97° |
| 2026-05-08 21:00 | 25.14971 | 101.60123 | 35157 ft | 559 kts | 97° |
| 2026-05-08 21:01 | 25.14365 | 101.68664 | 35150 ft | 559 kts | 97° |
| 2026-05-08 21:01 | 25.13750 | 101.77250 | 35152 ft | 559 kts | 97° |
| 2026-05-08 21:02 | 25.13137 | 101.85782 | 35159 ft | 559 kts | 97° |
| 2026-05-08 21:02 | 25.12512 | 101.94346 | 35160 ft | 559 kts | 98° |
| 2026-05-08 21:03 | 25.11891 | 102.02851 | 35163 ft | 559 kts | 97° |
| 2026-05-08 21:03 | 25.11261 | 102.11419 | 35191 ft | 559 kts | 97° |
| 2026-05-08 21:04 | 25.10627 | 102.19944 | 35195 ft | 560 kts | 97° |
| 2026-05-08 21:04 | 25.09983 | 102.28526 | 35201 ft | 560 kts | 97° |
| 2026-05-08 21:05 | 25.09340 | 102.37059 | 35218 ft | 560 kts | 97° |
| 2026-05-08 21:05 | 25.08655 | 102.45636 | 35214 ft | 559 kts | 101° |
| 2026-05-08 21:06 | 25.06935 | 102.53961 | 35227 ft | 553 kts | 112° |
| 2026-05-08 21:06 | 25.04046 | 102.61707 | 35250 ft | 546 kts | 121° |
| 2026-05-08 21:07 | 25.00621 | 102.69202 | 35276 ft | 546 kts | 122° |
| 2026-05-08 21:07 | 24.97249 | 102.76682 | 35279 ft | 547 kts | 121° |
| 2026-05-08 21:08 | 24.93901 | 102.84245 | 35282 ft | 548 kts | 121° |
| 2026-05-08 21:08 | 24.90563 | 102.91790 | 35267 ft | 548 kts | 121° |
| 2026-05-08 21:09 | 24.87269 | 102.99326 | 35273 ft | 548 kts | 120° |
| 2026-05-08 21:09 | 24.83957 | 103.06913 | 35265 ft | 548 kts | 120° |
| 2026-05-08 21:10 | 24.80663 | 103.14429 | 35268 ft | 548 kts | 120° |
| 2026-05-08 21:10 | 24.77333 | 103.22004 | 35231 ft | 548 kts | 120° |
| 2026-05-08 21:11 | 24.74006 | 103.29560 | 35247 ft | 548 kts | 120° |
| 2026-05-08 21:11 | 24.70693 | 103.37072 | 35221 ft | 548 kts | 120° |
| 2026-05-08 21:12 | 24.67358 | 103.44625 | 35244 ft | 547 kts | 120° |
| 2026-05-08 21:12 | 24.64039 | 103.52127 | 35229 ft | 548 kts | 120° |
| 2026-05-08 21:13 | 24.60695 | 103.59673 | 35226 ft | 547 kts | 120° |
| 2026-05-08 21:13 | 24.57376 | 103.67154 | 35227 ft | 547 kts | 120° |
| 2026-05-08 21:14 | 24.54254 | 103.74830 | 35226 ft | 550 kts | 113° |
| 2026-05-08 21:14 | 24.52228 | 103.82922 | 35222 ft | 554 kts | 105° |
| 2026-05-08 21:15 | 24.50550 | 103.91203 | 35212 ft | 555 kts | 104° |
| 2026-05-08 21:15 | 24.48855 | 103.99420 | 35204 ft | 554 kts | 105° |
| 2026-05-08 21:16 | 24.47103 | 104.07661 | 35197 ft | 553 kts | 105° |
| 2026-05-08 21:16 | 24.45333 | 104.15883 | 35187 ft | 551 kts | 105° |
| 2026-05-08 21:17 | 24.43571 | 104.24050 | 35179 ft | 552 kts | 105° |
| 2026-05-08 21:17 | 24.41807 | 104.32231 | 35162 ft | 552 kts | 105° |
| 2026-05-08 21:18 | 24.40028 | 104.40458 | 35156 ft | 553 kts | 105° |
| 2026-05-08 21:18 | 24.38257 | 104.48632 | 35136 ft | 553 kts | 105° |
| 2026-05-08 21:19 | 24.36469 | 104.56858 | 35135 ft | 552 kts | 105° |
| 2026-05-08 21:19 | 24.34693 | 104.64997 | 35137 ft | 550 kts | 105° |
| 2026-05-08 21:20 | 24.32907 | 104.73171 | 35129 ft | 550 kts | 105° |
| 2026-05-08 21:20 | 24.31117 | 104.81341 | 35120 ft | 550 kts | 105° |
| 2026-05-08 21:21 | 24.29329 | 104.89474 | 35112 ft | 550 kts | 105° |
| 2026-05-08 21:21 | 24.27536 | 104.97599 | 35113 ft | 551 kts | 105° |
| 2026-05-08 21:22 | 24.25731 | 105.05779 | 35097 ft | 552 kts | 105° |
| 2026-05-08 21:22 | 24.23929 | 105.13903 | 35104 ft | 552 kts | 105° |
| 2026-05-08 21:23 | 24.22109 | 105.22108 | 35101 ft | 552 kts | 105° |
| 2026-05-08 21:23 | 24.20186 | 105.30231 | 35102 ft | 552 kts | 107° |
| 2026-05-08 21:24 | 24.18184 | 105.38361 | 35100 ft | 552 kts | 107° |
| 2026-05-08 21:24 | 24.16206 | 105.46453 | 35101 ft | 552 kts | 107° |
| 2026-05-08 21:25 | 24.14230 | 105.54588 | 35092 ft | 551 kts | 107° |
| 2026-05-08 21:25 | 24.12265 | 105.62665 | 35071 ft | 550 kts | 107° |
| 2026-05-08 21:26 | 24.10284 | 105.70772 | 35087 ft | 550 kts | 106° |
| 2026-05-08 21:26 | 24.08551 | 105.78912 | 35078 ft | 552 kts | 103° |
| 2026-05-08 21:27 | 24.06999 | 105.87140 | 35078 ft | 552 kts | 103° |
| 2026-05-08 21:27 | 24.05417 | 105.95343 | 35086 ft | 552 kts | 103° |
| 2026-05-08 21:28 | 24.03773 | 106.03587 | 35067 ft | 554 kts | 103° |
| 2026-05-08 21:28 | 24.02109 | 106.11837 | 35069 ft | 553 kts | 104° |
| 2026-05-08 21:29 | 24.00460 | 106.20011 | 35068 ft | 552 kts | 104° |
| 2026-05-08 21:29 | 23.98801 | 106.28225 | 35070 ft | 551 kts | 104° |
| 2026-05-08 21:30 | 23.97152 | 106.36370 | 35067 ft | 551 kts | 104° |
| 2026-05-08 21:30 | 23.95486 | 106.44573 | 35070 ft | 550 kts | 104° |
| 2026-05-08 21:31 | 23.93828 | 106.52715 | 35074 ft | 551 kts | 104° |
| 2026-05-08 21:31 | 23.92480 | 106.59531 | 35083 ft | 551 kts | 101° |
| 2026-05-08 21:32 | 23.91672 | 106.67840 | 35080 ft | 552 kts | 94° |
| 2026-05-08 21:32 | 23.91196 | 106.76248 | 35075 ft | 552 kts | 94° |
| 2026-05-08 21:33 | 23.90697 | 106.84595 | 35077 ft | 552 kts | 94° |
| 2026-05-08 21:33 | 23.90149 | 106.92974 | 35083 ft | 552 kts | 94° |
| 2026-05-08 21:34 | 23.89583 | 107.01303 | 35070 ft | 552 kts | 94° |
| 2026-05-08 21:34 | 23.89009 | 107.09679 | 35079 ft | 551 kts | 94° |
| 2026-05-08 21:35 | 23.88437 | 107.18049 | 35082 ft | 551 kts | 94° |
| 2026-05-08 21:35 | 23.87866 | 107.26355 | 35076 ft | 551 kts | 94° |
| 2026-05-08 21:36 | 23.87285 | 107.34719 | 35080 ft | 550 kts | 94° |
| 2026-05-08 21:36 | 23.86705 | 107.43015 | 35077 ft | 550 kts | 94° |
| 2026-05-08 21:37 | 23.86116 | 107.51377 | 35076 ft | 550 kts | 94° |
| 2026-05-08 21:37 | 23.85526 | 107.59680 | 35084 ft | 550 kts | 94° |
| 2026-05-08 21:38 | 23.84928 | 107.68028 | 35068 ft | 550 kts | 94° |
| 2026-05-08 21:38 | 23.84331 | 107.76328 | 35069 ft | 549 kts | 94° |
| 2026-05-08 21:39 | 23.83725 | 107.84652 | 35061 ft | 548 kts | 94° |
| 2026-05-08 21:39 | 23.83245 | 107.92932 | 35074 ft | 549 kts | 92° |
| 2026-05-08 21:40 | 23.82861 | 108.01280 | 35077 ft | 549 kts | 92° |
| 2026-05-08 21:40 | 23.82449 | 108.09574 | 35086 ft | 549 kts | 93° |
| 2026-05-08 21:41 | 23.81780 | 108.22090 | 35090 ft | 549 kts | 93° |
| 2026-05-08 21:41 | 23.81308 | 108.30388 | 35081 ft | 549 kts | 93° |
| 2026-05-08 21:42 | 23.80830 | 108.38681 | 35079 ft | 548 kts | 93° |
| 2026-05-08 21:42 | 23.80352 | 108.46992 | 35081 ft | 548 kts | 93° |
| 2026-05-08 21:43 | 23.79871 | 108.55316 | 35084 ft | 547 kts | 93° |
| 2026-05-08 21:43 | 23.79388 | 108.63582 | 35081 ft | 547 kts | 93° |
| 2026-05-08 21:44 | 23.78899 | 108.71861 | 35080 ft | 546 kts | 93° |
| 2026-05-08 21:44 | 23.78404 | 108.80172 | 35073 ft | 545 kts | 93° |
| 2026-05-08 21:45 | 23.77909 | 108.88398 | 35079 ft | 544 kts | 93° |
| 2026-05-08 21:45 | 23.77410 | 108.96653 | 35079 ft | 544 kts | 93° |
| 2026-05-08 21:46 | 23.76906 | 109.04877 | 35073 ft | 544 kts | 94° |
| 2026-05-08 21:46 | 23.76382 | 109.13130 | 35069 ft | 544 kts | 95° |
| 2026-05-08 21:47 | 23.75116 | 109.21230 | 35077 ft | 543 kts | 103° |
| 2026-05-08 21:47 | 23.73422 | 109.29230 | 35073 ft | 543 kts | 103° |
| 2026-05-08 21:48 | 23.71747 | 109.37275 | 35062 ft | 544 kts | 103° |
| 2026-05-08 21:48 | 23.70114 | 109.45344 | 35067 ft | 543 kts | 103° |
| 2026-05-08 21:49 | 23.68494 | 109.53368 | 35062 ft | 543 kts | 103° |
| 2026-05-08 21:49 | 23.66852 | 109.61444 | 35063 ft | 543 kts | 103° |
| 2026-05-08 21:50 | 23.65210 | 109.69452 | 35062 ft | 543 kts | 103° |
| 2026-05-08 21:50 | 23.63546 | 109.77512 | 35061 ft | 543 kts | 103° |
| 2026-05-08 21:51 | 23.61883 | 109.85555 | 35053 ft | 543 kts | 103° |
| 2026-05-08 21:51 | 23.60228 | 109.93556 | 35051 ft | 543 kts | 103° |
| 2026-05-08 21:52 | 23.58556 | 110.01603 | 35047 ft | 543 kts | 103° |
| 2026-05-08 21:52 | 23.56891 | 110.09594 | 35041 ft | 543 kts | 103° |
| 2026-05-08 21:53 | 23.55213 | 110.17636 | 35045 ft | 542 kts | 103° |
| 2026-05-08 21:53 | 23.53534 | 110.25655 | 35073 ft | 542 kts | 103° |
| 2026-05-08 21:54 | 23.51864 | 110.33615 | 35137 ft | 541 kts | 103° |
| 2026-05-08 21:54 | 23.50198 | 110.41637 | 35135 ft | 542 kts | 103° |
| 2026-05-08 21:55 | 23.48580 | 110.49640 | 35133 ft | 543 kts | 102° |
| 2026-05-08 21:56 | 23.46118 | 110.61757 | 35136 ft | 544 kts | 103° |
| 2026-05-08 21:56 | 23.44477 | 110.69771 | 35132 ft | 545 kts | 103° |
| 2026-05-08 21:57 | 23.42810 | 110.77798 | 35136 ft | 544 kts | 103° |
| 2026-05-08 21:57 | 23.41095 | 110.85848 | 35126 ft | 544 kts | 103° |
| 2026-05-08 21:58 | 23.39393 | 110.93832 | 35128 ft | 543 kts | 103° |
| 2026-05-08 21:58 | 23.37687 | 111.01846 | 35131 ft | 543 kts | 103° |
| 2026-05-08 21:59 | 23.35978 | 111.09859 | 35128 ft | 542 kts | 103° |
| 2026-05-08 21:59 | 23.34286 | 111.17820 | 35126 ft | 542 kts | 103° |
| 2026-05-08 22:00 | 23.32658 | 111.25875 | 35132 ft | 542 kts | 102° |
| 2026-05-08 22:00 | 23.31063 | 111.33833 | 35129 ft | 542 kts | 102° |
| 2026-05-08 22:01 | 23.29434 | 111.41856 | 35128 ft | 542 kts | 102° |
| 2026-05-08 22:01 | 23.27797 | 111.49877 | 35124 ft | 542 kts | 102° |
| 2026-05-08 22:02 | 23.26147 | 111.57831 | 35120 ft | 542 kts | 103° |
| 2026-05-08 22:02 | 23.24427 | 111.65820 | 35125 ft | 542 kts | 103° |
| 2026-05-08 22:03 | 23.22707 | 111.73809 | 35117 ft | 542 kts | 103° |
| 2026-05-08 22:03 | 23.20991 | 111.81809 | 35133 ft | 542 kts | 103° |
| 2026-05-08 22:04 | 23.19312 | 111.89776 | 35130 ft | 542 kts | 102° |
| 2026-05-08 22:04 | 23.17668 | 111.97752 | 35124 ft | 542 kts | 102° |
| 2026-05-08 22:05 | 23.16016 | 112.05735 | 35128 ft | 542 kts | 102° |
| 2026-05-08 22:05 | 23.14348 | 112.13733 | 35137 ft | 542 kts | 103° |
| 2026-05-08 22:06 | 23.12683 | 112.21689 | 35134 ft | 542 kts | 103° |
| 2026-05-08 22:06 | 23.11005 | 112.29685 | 35125 ft | 542 kts | 103° |
| 2026-05-08 22:07 | 23.09325 | 112.37678 | 35129 ft | 541 kts | 103° |
| 2026-05-08 22:07 | 23.07654 | 112.45607 | 35130 ft | 540 kts | 102° |
| 2026-05-08 22:08 | 23.06547 | 112.53635 | 35128 ft | 539 kts | 93° |
| 2026-05-08 22:08 | 23.06061 | 112.61771 | 35142 ft | 539 kts | 92° |
| 2026-05-08 22:09 | 23.05579 | 112.69916 | 35125 ft | 539 kts | 93° |
| 2026-05-08 22:09 | 23.05046 | 112.77997 | 35128 ft | 538 kts | 93° |
| 2026-05-08 22:10 | 23.04486 | 112.86112 | 35130 ft | 538 kts | 93° |
| 2026-05-08 22:10 | 23.03929 | 112.94168 | 35126 ft | 538 kts | 93° |
| 2026-05-08 22:11 | 23.03370 | 113.02273 | 35128 ft | 537 kts | 93° |
| 2026-05-08 22:11 | 23.02809 | 113.10328 | 35126 ft | 537 kts | 93° |
| 2026-05-08 22:12 | 23.01186 | 113.18177 | 35126 ft | 534 kts | 116° |
| 2026-05-08 22:12 | 22.99352 | 113.21687 | 35127 ft | 532 kts | 127° |
| 2026-05-08 22:12 | 22.96953 | 113.24726 | 35122 ft | 527 kts | 139° |
| 2026-05-08 22:13 | 22.91562 | 113.30078 | 35125 ft | 528 kts | 140° |
| 2026-05-08 22:13 | 22.86122 | 113.35480 | 35116 ft | 531 kts | 139° |
| 2026-05-08 22:14 | 22.80748 | 113.40936 | 35118 ft | 532 kts | 139° |
| 2026-05-08 22:14 | 22.75352 | 113.46461 | 35110 ft | 533 kts | 139° |
| 2026-05-08 22:15 | 22.69951 | 113.51985 | 35117 ft | 532 kts | 139° |
| 2026-05-08 22:15 | 22.64588 | 113.57454 | 35110 ft | 532 kts | 139° |
| 2026-05-08 22:16 | 22.59178 | 113.62962 | 35111 ft | 532 kts | 139° |
| 2026-05-08 22:16 | 22.55887 | 113.66310 | 35119 ft | 531 kts | 139° |
| 2026-05-08 22:17 | 22.50487 | 113.71799 | 35117 ft | 531 kts | 139° |
| 2026-05-08 22:17 | 22.45132 | 113.77236 | 35120 ft | 531 kts | 139° |
| 2026-05-08 22:18 | 22.39744 | 113.82703 | 35102 ft | 531 kts | 139° |
| 2026-05-08 22:18 | 22.34439 | 113.88217 | 35089 ft | 532 kts | 134° |
| 2026-05-08 22:19 | 22.30296 | 113.93157 | 35093 ft | 532 kts | 133° |
| 2026-05-08 22:19 | 22.25382 | 113.99147 | 35089 ft | 530 kts | 127° |
| 2026-05-08 22:19 | 22.23541 | 114.02590 | 35099 ft | 531 kts | 112° |
| 2026-05-08 22:20 | 22.22440 | 114.06401 | 35104 ft | 531 kts | 100° |
| 2026-05-08 22:20 | 22.22107 | 114.10304 | 35095 ft | 527 kts | 85° |
| 2026-05-08 22:20 | 22.22333 | 114.14238 | 35123 ft | 526 kts | 84° |
| 2026-05-08 22:21 | 22.22844 | 114.22157 | 35119 ft | 529 kts | 84° |
| 2026-05-08 22:21 | 22.23280 | 114.30114 | 35115 ft | 532 kts | 85° |
| 2026-05-08 22:22 | 22.23654 | 114.38111 | 35118 ft | 533 kts | 85° |
| 2026-05-08 22:22 | 22.24006 | 114.46071 | 35122 ft | 533 kts | 85° |
| 2026-05-08 22:23 | 22.24361 | 114.54088 | 35111 ft | 533 kts | 85° |
| 2026-05-08 22:23 | 22.24713 | 114.62029 | 35116 ft | 531 kts | 85° |
| 2026-05-08 22:24 | 22.25064 | 114.69996 | 35116 ft | 530 kts | 85° |
| 2026-05-08 22:24 | 22.25412 | 114.77965 | 35120 ft | 529 kts | 85° |
| 2026-05-08 22:25 | 22.25752 | 114.85858 | 35122 ft | 529 kts | 85° |
| 2026-05-08 22:25 | 22.26090 | 114.93805 | 35122 ft | 529 kts | 85° |
| 2026-05-08 22:26 | 22.26424 | 115.01754 | 35130 ft | 529 kts | 85° |
| 2026-05-08 22:26 | 22.26753 | 115.09658 | 35132 ft | 530 kts | 85° |
| 2026-05-08 22:27 | 22.27079 | 115.17607 | 35131 ft | 531 kts | 85° |
| 2026-05-08 22:27 | 22.27404 | 115.25607 | 35129 ft | 532 kts | 85° |
| 2026-05-08 22:28 | 22.27723 | 115.33548 | 35138 ft | 532 kts | 85° |
| 2026-05-08 22:28 | 22.28040 | 115.41559 | 35137 ft | 533 kts | 85° |
| 2026-05-08 22:29 | 22.28351 | 115.49516 | 35130 ft | 533 kts | 85° |
| 2026-05-08 22:29 | 22.28660 | 115.57522 | 35137 ft | 533 kts | 85° |
| 2026-05-08 22:30 | 22.28964 | 115.65493 | 35133 ft | 533 kts | 85° |
| 2026-05-08 22:30 | 22.29266 | 115.73498 | 35139 ft | 533 kts | 85° |
| 2026-05-08 22:31 | 22.29562 | 115.81467 | 35140 ft | 533 kts | 85° |
| 2026-05-08 22:31 | 22.29816 | 115.89481 | 35141 ft | 533 kts | 86° |
| 2026-05-08 22:32 | 22.30015 | 115.97464 | 35139 ft | 533 kts | 86° |
| 2026-05-08 22:32 | 22.30210 | 116.05446 | 35140 ft | 533 kts | 86° |
| 2026-05-08 22:33 | 22.30411 | 116.13453 | 35137 ft | 533 kts | 86° |
| 2026-05-08 22:33 | 22.30613 | 116.21470 | 35137 ft | 533 kts | 86° |
| 2026-05-08 22:34 | 22.30810 | 116.29449 | 35138 ft | 533 kts | 86° |
| 2026-05-08 22:34 | 22.31003 | 116.37426 | 35144 ft | 533 kts | 86° |
| 2026-05-08 22:35 | 22.31192 | 116.45443 | 35142 ft | 532 kts | 86° |
| 2026-05-08 22:35 | 22.31377 | 116.53446 | 35136 ft | 533 kts | 86° |
| 2026-05-08 22:36 | 22.31557 | 116.61411 | 35134 ft | 532 kts | 86° |
| 2026-05-08 22:36 | 22.31735 | 116.69420 | 35144 ft | 532 kts | 86° |
| 2026-05-08 22:37 | 22.31907 | 116.77384 | 35145 ft | 532 kts | 86° |
| 2026-05-08 22:37 | 22.32076 | 116.85386 | 35138 ft | 532 kts | 86° |
| 2026-05-08 22:38 | 22.32242 | 116.93393 | 35137 ft | 532 kts | 86° |
| 2026-05-08 22:38 | 22.32403 | 117.01358 | 35141 ft | 532 kts | 86° |
| 2026-05-08 22:39 | 22.32560 | 117.09362 | 35138 ft | 532 kts | 86° |
| 2026-05-08 22:39 | 22.32714 | 117.17353 | 35138 ft | 532 kts | 86° |
| 2026-05-08 22:40 | 22.32863 | 117.25315 | 35142 ft | 532 kts | 86° |
| 2026-05-08 22:40 | 22.33009 | 117.33340 | 35139 ft | 532 kts | 86° |
| 2026-05-08 22:41 | 22.33151 | 117.41289 | 35146 ft | 532 kts | 86° |
| 2026-05-08 22:41 | 22.34045 | 117.49120 | 35139 ft | 524 kts | 70° |
| 2026-05-08 22:42 | 22.36874 | 117.56311 | 35139 ft | 514 kts | 53° |
| 2026-05-08 22:42 | 22.40796 | 117.62719 | 35147 ft | 514 kts | 51° |
| 2026-05-08 22:43 | 22.44766 | 117.69168 | 35146 ft | 515 kts | 52° |
| 2026-05-08 22:43 | 22.48685 | 117.75707 | 35143 ft | 517 kts | 53° |
| 2026-05-08 22:44 | 22.52555 | 117.82216 | 35145 ft | 517 kts | 53° |
| 2026-05-08 22:44 | 22.56225 | 117.88886 | 35133 ft | 523 kts | 65° |
| 2026-05-08 22:44 | 22.57083 | 117.92740 | 35141 ft | 531 kts | 83° |
| 2026-05-08 22:45 | 22.56924 | 117.96749 | 35149 ft | 537 kts | 99° |
| 2026-05-08 22:45 | 22.55854 | 118.00624 | 35151 ft | 539 kts | 113° |
| 2026-05-08 22:45 | 22.53972 | 118.04084 | 35139 ft | 539 kts | 130° |
| 2026-05-08 22:46 | 22.48950 | 118.10086 | 35148 ft | 539 kts | 133° |
| 2026-05-08 22:46 | 22.44598 | 118.16649 | 35131 ft | 539 kts | 111° |
| 2026-05-08 22:46 | 22.43632 | 118.20548 | 35143 ft | 536 kts | 95° |
| 2026-05-08 22:47 | 22.43592 | 118.24553 | 35154 ft | 531 kts | 81° |
| 2026-05-08 22:47 | 22.44259 | 118.28462 | 35137 ft | 527 kts | 70° |
| 2026-05-08 22:47 | 22.45648 | 118.32027 | 35128 ft | 516 kts | 55° |
| 2026-05-08 22:48 | 22.49532 | 118.38556 | 35143 ft | 516 kts | 52° |
| 2026-05-08 22:48 | 22.53396 | 118.45140 | 35141 ft | 519 kts | 54° |
| 2026-05-08 22:49 | 22.57138 | 118.51787 | 35139 ft | 520 kts | 54° |
| 2026-05-08 22:49 | 22.62826 | 118.61778 | 35137 ft | 520 kts | 53° |
| 2026-05-08 22:50 | 22.66639 | 118.68449 | 35137 ft | 520 kts | 53° |
| 2026-05-08 22:50 | 22.70438 | 118.75119 | 35138 ft | 520 kts | 54° |
| 2026-05-08 22:51 | 22.74230 | 118.81791 | 35138 ft | 519 kts | 54° |
| 2026-05-08 22:51 | 22.78002 | 118.88440 | 35141 ft | 519 kts | 54° |
| 2026-05-08 22:52 | 22.81801 | 118.95142 | 35137 ft | 519 kts | 54° |
| 2026-05-08 22:52 | 22.85567 | 119.01795 | 35132 ft | 519 kts | 54° |
| 2026-05-08 22:53 | 22.89347 | 119.08482 | 35134 ft | 519 kts | 54° |
| 2026-05-08 22:53 | 22.93106 | 119.15139 | 35132 ft | 520 kts | 54° |
| 2026-05-08 22:54 | 22.96895 | 119.21858 | 35134 ft | 520 kts | 54° |
| 2026-05-08 22:54 | 23.00653 | 119.28533 | 35133 ft | 521 kts | 54° |
| 2026-05-08 22:55 | 23.04423 | 119.35238 | 35132 ft | 521 kts | 54° |
| 2026-05-08 22:55 | 23.08214 | 119.41987 | 35130 ft | 522 kts | 54° |
| 2026-05-08 22:56 | 23.11981 | 119.48705 | 35127 ft | 522 kts | 54° |
| 2026-05-08 22:56 | 23.15867 | 119.55394 | 35122 ft | 518 kts | 48° |
| 2026-05-08 22:57 | 23.20778 | 119.60935 | 35132 ft | 507 kts | 34° |
| 2026-05-08 22:57 | 23.26574 | 119.65195 | 35132 ft | 500 kts | 26° |
| 2026-05-08 22:58 | 23.32500 | 119.69089 | 35130 ft | 500 kts | 25° |
| 2026-05-08 22:58 | 23.38469 | 119.73047 | 35131 ft | 501 kts | 26° |
| 2026-05-08 22:59 | 23.44384 | 119.77028 | 35133 ft | 502 kts | 26° |
| 2026-05-08 22:59 | 23.50335 | 119.81060 | 35134 ft | 502 kts | 26° |
| 2026-05-08 23:00 | 23.56247 | 119.85070 | 35133 ft | 503 kts | 26° |
| 2026-05-08 23:00 | 23.62192 | 119.89103 | 35132 ft | 503 kts | 26° |
| 2026-05-08 23:01 | 23.68117 | 119.93126 | 35131 ft | 503 kts | 26° |
| 2026-05-08 23:01 | 23.74081 | 119.97179 | 35135 ft | 504 kts | 26° |
| 2026-05-08 23:02 | 23.80034 | 120.01230 | 35133 ft | 504 kts | 26° |
| 2026-05-08 23:02 | 23.85959 | 120.05266 | 35138 ft | 504 kts | 26° |
| 2026-05-08 23:03 | 23.91928 | 120.09336 | 35142 ft | 504 kts | 26° |
| 2026-05-08 23:03 | 23.97855 | 120.13382 | 35147 ft | 505 kts | 26° |
| 2026-05-08 23:04 | 24.02830 | 120.16781 | 35143 ft | 505 kts | 26° |
| 2026-05-08 23:04 | 24.08804 | 120.20868 | 35148 ft | 505 kts | 26° |
| 2026-05-08 23:05 | 24.14748 | 120.24939 | 35153 ft | 506 kts | 26° |
| 2026-05-08 23:05 | 24.20741 | 120.29047 | 35153 ft | 507 kts | 26° |
| 2026-05-08 23:06 | 24.26702 | 120.33139 | 35152 ft | 507 kts | 26° |
| 2026-05-08 23:06 | 24.32682 | 120.37248 | 35159 ft | 507 kts | 26° |
| 2026-05-08 23:07 | 24.38681 | 120.41375 | 35155 ft | 508 kts | 26° |
| 2026-05-08 23:07 | 24.44640 | 120.45479 | 35158 ft | 508 kts | 26° |
| 2026-05-08 23:08 | 24.50645 | 120.49619 | 35160 ft | 508 kts | 26° |
| 2026-05-08 23:08 | 24.56605 | 120.53734 | 35161 ft | 508 kts | 26° |
| 2026-05-08 23:09 | 24.62580 | 120.57864 | 35170 ft | 509 kts | 26° |
| 2026-05-08 23:09 | 24.68507 | 120.62216 | 35182 ft | 515 kts | 32° |
| 2026-05-08 23:10 | 24.73793 | 120.67337 | 35153 ft | 495 kts | 36° |
| 2026-05-08 23:10 | 24.76290 | 120.69869 | 35147 ft | 479 kts | 36° |
| 2026-05-08 23:10 | 24.78711 | 120.72307 | 35150 ft | 463 kts | 35° |
| 2026-05-08 23:11 | 24.81066 | 120.74650 | 35148 ft | 448 kts | 34° |
| 2026-05-08 23:11 | 24.83376 | 120.76923 | 35163 ft | 444 kts | 34° |
| 2026-05-08 23:11 | 24.87975 | 120.81429 | 35192 ft | 445 kts | 34° |
| 2026-05-08 23:12 | 24.92600 | 120.85985 | 35177 ft | 446 kts | 34° |
| 2026-05-08 23:12 | 24.97223 | 120.90546 | 35190 ft | 447 kts | 34° |
| 2026-05-08 23:13 | 25.01874 | 120.95134 | 35204 ft | 448 kts | 34° |
| 2026-05-08 23:13 | 25.06500 | 120.99698 | 35207 ft | 449 kts | 34° |
| 2026-05-08 23:14 | 25.11173 | 121.04308 | 35211 ft | 449 kts | 34° |
| 2026-05-08 23:14 | 25.15812 | 121.08890 | 35044 ft | 446 kts | 34° |
| 2026-05-08 23:15 | 25.18117 | 121.11172 | 34675 ft | 444 kts | 34° |
| 2026-05-08 23:15 | 25.20415 | 121.13451 | 34294 ft | 441 kts | 34° |
| 2026-05-08 23:15 | 25.22680 | 121.15701 | 33871 ft | 440 kts | 34° |
| 2026-05-08 23:15 | 25.24954 | 121.17962 | 33449 ft | 437 kts | 34° |
| 2026-05-08 23:16 | 25.27210 | 121.20210 | 33041 ft | 434 kts | 34° |
| 2026-05-08 23:16 | 25.29440 | 121.22437 | 32654 ft | 431 kts | 34° |
| 2026-05-08 23:16 | 25.31629 | 121.24627 | 32277 ft | 428 kts | 34° |
| 2026-05-08 23:16 | 25.33833 | 121.26837 | 31889 ft | 425 kts | 34° |
| 2026-05-08 23:17 | 25.36023 | 121.29038 | 31505 ft | 422 kts | 34° |
| 2026-05-08 23:17 | 25.38193 | 121.31222 | 31131 ft | 420 kts | 34° |
| 2026-05-08 23:17 | 25.40324 | 121.33372 | 30756 ft | 417 kts | 34° |
| 2026-05-08 23:17 | 25.42469 | 121.35538 | 30393 ft | 415 kts | 34° |
| 2026-05-08 23:18 | 25.44495 | 121.37827 | 29976 ft | 420 kts | 44° |
| 2026-05-08 23:18 | 25.46160 | 121.40529 | 29533 ft | 427 kts | 55° |
| 2026-05-08 23:18 | 25.47386 | 121.43512 | 28861 ft | 437 kts | 65° |
| 2026-05-08 23:18 | 25.48228 | 121.46850 | 27552 ft | 462 kts | 76° |
| 2026-05-08 23:19 | 25.48602 | 121.50491 | 26141 ft | 486 kts | 86° |
| 2026-05-08 23:19 | 25.48441 | 121.54242 | 25080 ft | 499 kts | 97° |
| 2026-05-08 23:19 | 25.47730 | 121.58002 | 24370 ft | 498 kts | 107° |
| 2026-05-08 23:19 | 25.46513 | 121.61578 | 23736 ft | 494 kts | 116° |
| 2026-05-08 23:20 | 25.44832 | 121.64863 | 23100 ft | 486 kts | 126° |
| 2026-05-08 23:20 | 25.42746 | 121.67780 | 22501 ft | 477 kts | 135° |
| 2026-05-08 23:20 | 25.40456 | 121.70404 | 21910 ft | 470 kts | 138° |
| 2026-05-08 23:20 | 25.38133 | 121.72901 | 21305 ft | 465 kts | 139° |
| 2026-05-08 23:21 | 25.35797 | 121.75365 | 20708 ft | 461 kts | 140° |
| 2026-05-08 23:21 | 25.33480 | 121.77800 | 20135 ft | 456 kts | 140° |
| 2026-05-08 23:21 | 25.31217 | 121.80176 | 19600 ft | 452 kts | 140° |
| 2026-05-08 23:21 | 25.28939 | 121.82553 | 19058 ft | 444 kts | 141° |
| 2026-05-08 23:22 | 25.26501 | 121.84618 | 18474 ft | 437 kts | 152° |
| 2026-05-08 23:22 | 25.23863 | 121.86134 | 17869 ft | 428 kts | 162° |
| 2026-05-08 23:22 | 25.21045 | 121.87107 | 17281 ft | 418 kts | 172° |
| 2026-05-08 23:22 | 25.18194 | 121.87497 | 16692 ft | 408 kts | 182° |
| 2026-05-08 23:23 | 25.15390 | 121.87303 | 16177 ft | 397 kts | 194° |
| 2026-05-08 23:23 | 25.12826 | 121.86547 | 16103 ft | 375 kts | 205° |
| 2026-05-08 23:23 | 25.10546 | 121.85299 | 16002 ft | 355 kts | 217° |
| 2026-05-08 23:23 | 25.08717 | 121.83586 | 15933 ft | 335 kts | 232° |
| 2026-05-08 23:24 | 25.07515 | 121.81475 | 15827 ft | 316 kts | 251° |
| 2026-05-08 23:24 | 25.07112 | 121.79195 | 15744 ft | 300 kts | 270° |
| 2026-05-08 23:24 | 25.07254 | 121.76943 | 15610 ft | 289 kts | 277° |
| 2026-05-08 23:24 | 25.07530 | 121.74772 | 15425 ft | 282 kts | 278° |
| 2026-05-08 23:25 | 25.07829 | 121.72638 | 15156 ft | 278 kts | 279° |
| 2026-05-08 23:25 | 25.08128 | 121.70533 | 14836 ft | 278 kts | 279° |
| 2026-05-08 23:25 | 25.08381 | 121.68410 | 14468 ft | 279 kts | 276° |
| 2026-05-08 23:25 | 25.08556 | 121.66304 | 14143 ft | 278 kts | 275° |
| 2026-05-08 23:26 | 25.08719 | 121.64173 | 13814 ft | 277 kts | 275° |
| 2026-05-08 23:26 | 25.08878 | 121.62057 | 13494 ft | 276 kts | 275° |
| 2026-05-08 23:26 | 25.09032 | 121.59953 | 13166 ft | 274 kts | 275° |
| 2026-05-08 23:26 | 25.09183 | 121.57882 | 12837 ft | 273 kts | 275° |
| 2026-05-08 23:27 | 25.09337 | 121.55793 | 12508 ft | 272 kts | 275° |
| 2026-05-08 23:27 | 25.09490 | 121.53719 | 12204 ft | 270 kts | 275° |
| 2026-05-08 23:27 | 25.09644 | 121.51673 | 11779 ft | 264 kts | 275° |
| 2026-05-08 23:27 | 25.09802 | 121.49644 | 11142 ft | 266 kts | 275° |
| 2026-05-08 23:28 | 25.09966 | 121.47608 | 10537 ft | 266 kts | 275° |
| 2026-05-08 23:28 | 25.10136 | 121.45605 | 9988 ft | 263 kts | 275° |
| 2026-05-08 23:28 | 25.10316 | 121.43597 | 9387 ft | 261 kts | 275° |
| 2026-05-08 23:28 | 25.10502 | 121.41596 | 8790 ft | 261 kts | 275° |
| 2026-05-08 23:29 | 25.10697 | 121.39624 | 8396 ft | 254 kts | 275° |
| 2026-05-08 23:29 | 25.10895 | 121.37739 | 8125 ft | 248 kts | 275° |
| 2026-05-08 23:29 | 25.11100 | 121.35844 | 7897 ft | 248 kts | 275° |
| 2026-05-08 23:29 | 25.11313 | 121.33928 | 7690 ft | 255 kts | 275° |
| 2026-05-08 23:30 | 25.11538 | 121.31981 | 7477 ft | 260 kts | 275° |
| 2026-05-08 23:30 | 25.11774 | 121.29996 | 7280 ft | 261 kts | 275° |
| 2026-05-08 23:30 | 25.12014 | 121.28003 | 7043 ft | 261 kts | 275° |
| 2026-05-08 23:30 | 25.12265 | 121.26029 | 6953 ft | 258 kts | 275° |
| 2026-05-08 23:31 | 25.12519 | 121.24064 | 6754 ft | 254 kts | 275° |
| 2026-05-08 23:31 | 25.12517 | 121.22155 | 6559 ft | 249 kts | 253° |
| 2026-05-08 23:31 | 25.11935 | 121.20375 | 6356 ft | 251 kts | 243° |
| 2026-05-08 23:31 | 25.11138 | 121.18629 | 6107 ft | 257 kts | 240° |
| 2026-05-08 23:32 | 25.10300 | 121.16872 | 5788 ft | 262 kts | 240° |
| 2026-05-08 23:32 | 25.09445 | 121.15083 | 5437 ft | 262 kts | 240° |
| 2026-05-08 23:32 | 25.08608 | 121.13322 | 5085 ft | 261 kts | 239° |
| 2026-05-08 23:32 | 25.07778 | 121.11569 | 4721 ft | 253 kts | 240° |
| 2026-05-08 23:33 | 25.06972 | 121.09879 | 4321 ft | 245 kts | 239° |
| 2026-05-08 23:33 | 25.05955 | 121.08444 | 3930 ft | 232 kts | 211° |
| 2026-05-08 23:33 | 25.04557 | 121.07691 | 3619 ft | 219 kts | 195° |
| 2026-05-08 23:33 | 25.03122 | 121.07139 | 3397 ft | 218 kts | 193° |
| 2026-05-08 23:34 | 25.01691 | 121.06602 | 3053 ft | 221 kts | 192° |
| 2026-05-08 23:34 | 25.00218 | 121.06403 | 2643 ft | 208 kts | 162° |
| 2026-05-08 23:34 | 24.99015 | 121.07120 | 2311 ft | 190 kts | 124° |
| 2026-05-08 23:34 | 24.98510 | 121.08349 | 2037 ft | 166 kts | 96° |
| 2026-05-08 23:35 | 24.98340 | 121.09609 | 2023 ft | 171 kts | 94° |
| 2026-05-08 23:35 | 24.98213 | 121.10897 | 1988 ft | 163 kts | 87° |
| 2026-05-08 23:35 | 24.98541 | 121.12025 | 1998 ft | 150 kts | 60° |
| 2026-05-08 23:35 | 24.99075 | 121.12995 | 2008 ft | 145 kts | 58° |
| 2026-05-08 23:36 | 24.99639 | 121.13907 | 1999 ft | 142 kts | 57° |
| 2026-05-08 23:36 | 25.00207 | 121.14794 | 1886 ft | 148 kts | 54° |
| 2026-05-08 23:36 | 25.00845 | 121.15667 | 1708 ft | 143 kts | 52° |
| 2026-05-08 23:36 | 25.01473 | 121.16477 | 1526 ft | 135 kts | 51° |
| 2026-05-08 23:37 | 25.02077 | 121.17249 | 1357 ft | 134 kts | 51° |
| 2026-05-08 23:37 | 25.02689 | 121.18031 | 1178 ft | 136 kts | 49° |
| 2026-05-08 23:37 | 25.03311 | 121.18822 | 1001 ft | 136 kts | 49° |
| 2026-05-08 23:37 | 25.03915 | 121.19592 | 824 ft | 127 kts | 48° |
| 2026-05-08 23:38 | 25.04484 | 121.20316 | 667 ft | 130 kts | 47° |
| 2026-05-08 23:38 | 25.05093 | 121.21093 | 477 ft | 137 kts | 49° |
| 2026-05-08 23:38 | 25.05698 | 121.21865 | 277 ft | 128 kts | 49° |
| 2026-05-08 23:38 | 25.06283 | 121.22611 | 141 ft | 129 kts | 49° |
| 2026-05-08 23:39 | 25.06831 | 121.23305 | 113 ft | 104 kts | 49° |
| 2026-05-08 23:39 | 25.07204 | 121.23783 | 110 ft | 60 kts | 49° |
| 2026-05-08 23:39 | 25.07382 | 121.23999 | 107 ft | 21 kts | 47° |
| 2026-05-08 23:39 | 25.07497 | 121.24126 | 109 ft | 24 kts | 38° |
| 2026-05-08 23:40 | 25.07593 | 121.24184 | 110 ft | 16 kts | 19° |
| 2026-05-08 23:40 | 25.07697 | 121.24222 | 110 ft | 16 kts | 18° |
| 2026-05-08 23:40 | 25.07800 | 121.24261 | 109 ft | 16 kts | 19° |
| 2026-05-08 23:40 | 25.07903 | 121.24243 | 110 ft | 16 kts | 324° |
| 2026-05-08 23:41 | 25.07981 | 121.24150 | 107 ft | 17 kts | 284° |
| 2026-05-08 23:41 | 25.07933 | 121.24056 | 107 ft | 15 kts | 229° |
| 2026-05-08 23:41 | 25.07866 | 121.23972 | 108 ft | 15 kts | 229° |
| 2026-05-08 23:41 | 25.07799 | 121.23887 | 108 ft | 15 kts | 229° |
| 2026-05-08 23:42 | 25.07734 | 121.23804 | 108 ft | 8 kts | 229° |
| 2026-05-08 23:42 | 25.07729 | 121.23798 | 108 ft | 2 kts | 229° |
| 2026-05-08 23:42 | 25.07719 | 121.23786 | 109 ft | 3 kts | 229° |
| 2026-05-08 23:42 | 25.07705 | 121.23768 | 109 ft | 4 kts | 229° |
| 2026-05-08 23:43 | 25.07686 | 121.23743 | 109 ft | 5 kts | 229° |
| 2026-05-08 23:43 | 25.07662 | 121.23714 | 109 ft | 6 kts | 229° |
| 2026-05-08 23:43 | 25.07653 | 121.23672 | 109 ft | 6 kts | 285° |
| 2026-05-08 23:43 | 25.07690 | 121.23635 | 107 ft | 9 kts | 317° |
| 2026-05-08 23:44 | 25.07728 | 121.23598 | 107 ft | 0 kts | 317° |